sensor_id;sensor_type;location;lat;lon;timestamp;pressure;altitude;pressure_sealevel;temperature;humidity
49583;BME280;36329;48.816;44.624;2023-03-13T00:01:15;100362;;;8.9;100
49583;BME280;36329;48.816;44.624;2023-03-13T00:04:18;100357;;;9;100
49583;BME280;36329;48.816;44.624;2023-03-13T00:07:21;100359;;;9;100
49583;BME280;36329;48.816;44.624;2023-03-13T00:10:23;100353;;;9;100
49583;BME280;36329;48.816;44.624;2023-03-13T00:13:25;100348;;;9;100
49583;BME280;36329;48.816;44.624;2023-03-13T00:16:28;100352;;;8.9;100
49583;BME280;36329;48.816;44.624;2023-03-13T00:19:36;100342;;;8.8;100
49583;BME280;36329;48.816;44.624;2023-03-13T00:22:39;100343;;;8.9;100
49583;BME280;36329;48.816;44.624;2023-03-13T00:25:41;100350;;;8.9;100
49583;BME280;36329;48.816;44.624;2023-03-13T00:28:44;100346;;;8.9;100
49583;BME280;36329;48.816;44.624;2023-03-13T00:31:47;100347;;;8.9;100
49583;BME280;36329;48.816;44.624;2023-03-13T00:34:49;100349;;;8.9;100
49583;BME280;36329;48.816;44.624;2023-03-13T00:37:51;100348;;;8.9;100
49583;BME280;36329;48.816;44.624;2023-03-13T00:40:59;100353;;;9;100
49583;BME280;36329;48.816;44.624;2023-03-13T00:44:07;100353;;;9;100
49583;BME280;36329;48.816;44.624;2023-03-13T00:47:09;100363;;;9.1;100
49583;BME280;36329;48.816;44.624;2023-03-13T00:50:11;100370;;;9;100
49583;BME280;36329;48.816;44.624;2023-03-13T00:53:14;100372;;;9;100
49583;BME280;36329;48.816;44.624;2023-03-13T00:56:18;100369;;;8.9;100
49583;BME280;36329;48.816;44.624;2023-03-13T00:59:21;100384;;;8.9;100
49583;BME280;36329;48.816;44.624;2023-03-13T01:02:24;100402;;;8.5;100
49583;BME280;36329;48.816;44.624;2023-03-13T01:05:26;100410;;;7.9;100
49583;BME280;36329;48.816;44.624;2023-03-13T01:08:29;100417;;;7.2;100
49583;BME280;36329;48.816;44.624;2023-03-13T01:11:35;100422;;;7.2;100
49583;BME280;36329;48.816;44.624;2023-03-13T01:14:38;100424;;;6.8;100
49583;BME280;36329;48.816;44.624;2023-03-13T01:17:42;100413;;;6.5;100
49583;BME280;36329;48.816;44.624;2023-03-13T01:20:45;100449;;;6.6;100
49583;BME280;36329;48.816;44.624;2023-03-13T01:24:03;100462;;;6.5;100
49583;BME280;36329;48.816;44.624;2023-03-13T01:27:11;100478;;;6.5;100
49583;BME280;36329;48.816;44.624;2023-03-13T01:30:13;100491;;;6.3;100
49583;BME280;36329;48.816;44.624;2023-03-13T01:33:16;100487;;;6.2;100
49583;BME280;36329;48.816;44.624;2023-03-13T01:36:18;100488;;;6.4;100
49583;BME280;36329;48.816;44.624;2023-03-13T01:39:20;100487;;;6.2;100
49583;BME280;36329;48.816;44.624;2023-03-13T01:42:22;100516;;;6.1;100
49583;BME280;36329;48.816;44.624;2023-03-13T01:49:05;100534;;;6.1;100
49583;BME280;36329;48.816;44.624;2023-03-13T01:52:16;100536;;;6;100
49583;BME280;36329;48.816;44.624;2023-03-13T01:55:20;100537;;;5.9;100
49583;BME280;36329;48.816;44.624;2023-03-13T01:58:24;100535;;;6.1;100
49583;BME280;36329;48.816;44.624;2023-03-13T02:01:27;100541;;;6;100
49583;BME280;36329;48.816;44.624;2023-03-13T02:04:34;100540;;;5.9;100
49583;BME280;36329;48.816;44.624;2023-03-13T02:07:40;100545;;;5.8;100
49583;BME280;36329;48.816;44.624;2023-03-13T02:10:53;100545;;;5.8;100
49583;BME280;36329;48.816;44.624;2023-03-13T02:14:01;100560;;;5.3;100
49583;BME280;36329;48.816;44.624;2023-03-13T02:17:06;100562;;;5.3;100
49583;BME280;36329;48.816;44.624;2023-03-13T02:20:09;100563;;;5.5;100
49583;BME280;36329;48.816;44.624;2023-03-13T02:23:19;100555;;;5.5;100
49583;BME280;36329;48.816;44.624;2023-03-13T02:26:23;100563;;;5.5;100
49583;BME280;36329;48.816;44.624;2023-03-13T02:29:27;100558;;;5.5;100
49583;BME280;36329;48.816;44.624;2023-03-13T02:32:30;100556;;;5.4;100
49583;BME280;36329;48.816;44.624;2023-03-13T02:35:38;100560;;;5.3;100
49583;BME280;36329;48.816;44.624;2023-03-13T02:38:44;100566;;;5.1;100
49583;BME280;36329;48.816;44.624;2023-03-13T02:41:50;100574;;;5.1;100
49583;BME280;36329;48.816;44.624;2023-03-13T02:44:53;100578;;;5;100
49583;BME280;36329;48.816;44.624;2023-03-13T02:47:55;100577;;;4.9;100
49583;BME280;36329;48.816;44.624;2023-03-13T02:50:59;100590;;;5.3;100
49583;BME280;36329;48.816;44.624;2023-03-13T02:54:05;100589;;;5.2;100
49583;BME280;36329;48.816;44.624;2023-03-13T02:57:10;100589;;;5.2;100
49583;BME280;36329;48.816;44.624;2023-03-13T03:00:15;100603;;;5.2;100
49583;BME280;36329;48.816;44.624;2023-03-13T03:03:19;100605;;;5.3;100
49583;BME280;36329;48.816;44.624;2023-03-13T03:06:21;100613;;;5.2;100
49583;BME280;36329;48.816;44.624;2023-03-13T03:09:23;100623;;;5.2;100
49583;BME280;36329;48.816;44.624;2023-03-13T03:12:25;100634;;;5.1;100
49583;BME280;36329;48.816;44.624;2023-03-13T03:15:33;100646;;;5.2;100
49583;BME280;36329;48.816;44.624;2023-03-13T03:18:36;100652;;;5.1;100
49583;BME280;36329;48.816;44.624;2023-03-13T03:21:39;100661;;;5.1;100
49583;BME280;36329;48.816;44.624;2023-03-13T03:24:46;100673;;;5.2;100
49583;BME280;36329;48.816;44.624;2023-03-13T03:27:50;100682;;;5.3;100
49583;BME280;36329;48.816;44.624;2023-03-13T03:30:52;100692;;;5.4;100
49583;BME280;36329;48.816;44.624;2023-03-13T03:34:06;100705;;;5.4;100
49583;BME280;36329;48.816;44.624;2023-03-13T03:37:10;100711;;;5.4;100
49583;BME280;36329;48.816;44.624;2023-03-13T03:40:15;100710;;;5.4;100
49583;BME280;36329;48.816;44.624;2023-03-13T03:43:17;100714;;;5.3;100
49583;BME280;36329;48.816;44.624;2023-03-13T03:46:20;100708;;;5.4;100
49583;BME280;36329;48.816;44.624;2023-03-13T03:49:22;100725;;;5.6;100
49583;BME280;36329;48.816;44.624;2023-03-13T03:52:25;100735;;;5.6;100
49583;BME280;36329;48.816;44.624;2023-03-13T03:55:29;100731;;;5.4;100
49583;BME280;36329;48.816;44.624;2023-03-13T03:58:31;100744;;;5.3;100
49583;BME280;36329;48.816;44.624;2023-03-13T04:01:33;100749;;;5.3;100
49583;BME280;36329;48.816;44.624;2023-03-13T04:04:37;100764;;;5.4;98.5
49583;BME280;36329;48.816;44.624;2023-03-13T04:07:40;100757;;;5.4;97.8
49583;BME280;36329;48.816;44.624;2023-03-13T04:10:52;100769;;;5.2;98.5
49583;BME280;36329;48.816;44.624;2023-03-13T04:13:54;100771;;;5.3;99.1
49583;BME280;36329;48.816;44.624;2023-03-13T04:17:07;100778;;;5.4;98.9
49583;BME280;36329;48.816;44.624;2023-03-13T04:20:23;100790;;;5.5;98.5
49583;BME280;36329;48.816;44.624;2023-03-13T04:23:39;100806;;;5.7;98.6
49583;BME280;36329;48.816;44.624;2023-03-13T04:26:48;100816;;;5.2;99.6
49583;BME280;36329;48.816;44.624;2023-03-13T04:29:52;100826;;;5.2;99.7
49583;BME280;36329;48.816;44.624;2023-03-13T04:32:54;100834;;;5;100
49583;BME280;36329;48.816;44.624;2023-03-13T04:35:57;100853;;;5.2;99.8
49583;BME280;36329;48.816;44.624;2023-03-13T04:39:06;100845;;;5.2;96.8
49583;BME280;36329;48.816;44.624;2023-03-13T04:42:09;100846;;;5.1;93.4
49583;BME280;36329;48.816;44.624;2023-03-13T04:45:18;100863;;;4.9;91.3
49583;BME280;36329;48.816;44.624;2023-03-13T04:48:36;100876;;;4.8;91.1
49583;BME280;36329;48.816;44.624;2023-03-13T04:51:45;100876;;;4.8;92.4
49583;BME280;36329;48.816;44.624;2023-03-13T04:54:56;100870;;;4.7;93.1
49583;BME280;36329;48.816;44.624;2023-03-13T04:58:09;100878;;;4.7;93.6
49583;BME280;36329;48.816;44.624;2023-03-13T05:01:12;100888;;;4.6;93.9
49583;BME280;36329;48.816;44.624;2023-03-13T05:04:17;100889;;;4.5;93.4
49583;BME280;36329;48.816;44.624;2023-03-13T05:07:19;100883;;;4.6;93
49583;BME280;36329;48.816;44.624;2023-03-13T05:10:22;100881;;;4.3;89.9
49583;BME280;36329;48.816;44.624;2023-03-13T05:13:24;100896;;;4.3;90.6
49583;BME280;36329;48.816;44.624;2023-03-13T05:16:44;100902;;;4.4;89.7
49583;BME280;36329;48.816;44.624;2023-03-13T05:19:47;100907;;;4.5;86.7
49583;BME280;36329;48.816;44.624;2023-03-13T05:22:59;100916;;;4.5;87
49583;BME280;36329;48.816;44.624;2023-03-13T05:26:08;100920;;;4.7;86.5
49583;BME280;36329;48.816;44.624;2023-03-13T05:29:17;100932;;;4.4;81.8
49583;BME280;36329;48.816;44.624;2023-03-13T05:32:20;100934;;;4.6;80.8
49583;BME280;36329;48.816;44.624;2023-03-13T05:35:39;100945;;;4.6;79.9
49583;BME280;36329;48.816;44.624;2023-03-13T05:38:43;100948;;;4.5;79.6
49583;BME280;36329;48.816;44.624;2023-03-13T05:41:48;100952;;;4.4;81.3
49583;BME280;36329;48.816;44.624;2023-03-13T05:45:05;100964;;;4.2;79
49583;BME280;36329;48.816;44.624;2023-03-13T05:48:21;100973;;;4.3;81.1
49583;BME280;36329;48.816;44.624;2023-03-13T05:51:29;100983;;;4.5;79.9
49583;BME280;36329;48.816;44.624;2023-03-13T05:54:36;100986;;;4.7;79.3
49583;BME280;36329;48.816;44.624;2023-03-13T05:57:54;100993;;;4.8;76.8
49583;BME280;36329;48.816;44.624;2023-03-13T06:01:05;100989;;;4.9;75.8
49583;BME280;36329;48.816;44.624;2023-03-13T06:04:17;100990;;;4.7;74.8
49583;BME280;36329;48.816;44.624;2023-03-13T06:07:24;100986;;;4.8;75.2
49583;BME280;36329;48.816;44.624;2023-03-13T06:10:49;100997;;;5.2;73.7
49583;BME280;36329;48.816;44.624;2023-03-13T06:13:52;100998;;;5.5;72.9
49583;BME280;36329;48.816;44.624;2023-03-13T06:17:13;101009;;;5.5;74
49583;BME280;36329;48.816;44.624;2023-03-13T06:20:27;101018;;;5.7;72.2
49583;BME280;36329;48.816;44.624;2023-03-13T06:23:41;101028;;;5.4;71.6
49583;BME280;36329;48.816;44.624;2023-03-13T06:27:09;101035;;;5.6;71.4
49583;BME280;36329;48.816;44.624;2023-03-13T06:30:13;101035;;;5.2;69.6
49583;BME280;36329;48.816;44.624;2023-03-13T06:33:16;101048;;;5.2;70.1
49583;BME280;36329;48.816;44.624;2023-03-13T06:36:20;101045;;;5.1;70.2
49583;BME280;36329;48.816;44.624;2023-03-13T06:39:23;101051;;;5.1;69.5
49583;BME280;36329;48.816;44.624;2023-03-13T06:42:32;101055;;;5.5;68
49583;BME280;36329;48.816;44.624;2023-03-13T06:45:40;101066;;;5.6;66.5
49583;BME280;36329;48.816;44.624;2023-03-13T06:48:44;101069;;;6.2;64.7
49583;BME280;36329;48.816;44.624;2023-03-13T06:51:51;101067;;;6.8;62.6
49583;BME280;36329;48.816;44.624;2023-03-13T06:55:00;101078;;;6.9;62.5
49583;BME280;36329;48.816;44.624;2023-03-13T06:58:09;101089;;;6.3;62.1
49583;BME280;36329;48.816;44.624;2023-03-13T07:01:14;101099;;;6.3;61.5
49583;BME280;36329;48.816;44.624;2023-03-13T07:04:17;101091;;;6.7;60.8
49583;BME280;36329;48.816;44.624;2023-03-13T07:07:33;101106;;;6.8;61.8
49583;BME280;36329;48.816;44.624;2023-03-13T07:10:42;101111;;;7;61.5
49583;BME280;36329;48.816;44.624;2023-03-13T07:14:06;101119;;;6.6;59.7
49583;BME280;36329;48.816;44.624;2023-03-13T07:17:16;101125;;;6.4;60.1
49583;BME280;36329;48.816;44.624;2023-03-13T07:20:41;101136;;;6.3;61.8
49583;BME280;36329;48.816;44.624;2023-03-13T07:23:46;101133;;;6.2;62.3
49583;BME280;36329;48.816;44.624;2023-03-13T07:27:07;101137;;;6;62.1
49583;BME280;36329;48.816;44.624;2023-03-13T07:30:19;101151;;;6.3;63.1
49583;BME280;36329;48.816;44.624;2023-03-13T07:33:32;101154;;;6.6;61.8
49583;BME280;36329;48.816;44.624;2023-03-13T07:36:35;101171;;;6.6;60.2
49583;BME280;36329;48.816;44.624;2023-03-13T07:39:45;101171;;;6.6;59.6
49583;BME280;36329;48.816;44.624;2023-03-13T07:43:09;101178;;;6.9;57.7
49583;BME280;36329;48.816;44.624;2023-03-13T07:46:15;101189;;;7;56.7
49583;BME280;36329;48.816;44.624;2023-03-13T07:49:24;101193;;;7.3;54.1
49583;BME280;36329;48.816;44.624;2023-03-13T07:52:42;101200;;;7.9;54.8
49583;BME280;36329;48.816;44.624;2023-03-13T07:56:08;101202;;;8.6;51
49583;BME280;36329;48.816;44.624;2023-03-13T07:59:29;101195;;;8.6;52.1
49583;BME280;36329;48.816;44.624;2023-03-13T08:02:36;101202;;;8.7;53.1
49583;BME280;36329;48.816;44.624;2023-03-13T08:05:57;101212;;;7.9;51
49583;BME280;36329;48.816;44.624;2023-03-13T08:09:01;101213;;;7.5;50.9
49583;BME280;36329;48.816;44.624;2023-03-13T08:12:23;101215;;;7.5;50.9
49583;BME280;36329;48.816;44.624;2023-03-13T08:15:42;101205;;;7.6;51.8
49583;BME280;36329;48.816;44.624;2023-03-13T08:18:52;101207;;;7.8;51.9
49583;BME280;36329;48.816;44.624;2023-03-13T08:22:17;101215;;;7.6;49
49583;BME280;36329;48.816;44.624;2023-03-13T08:25:41;101221;;;7.5;49.5
49583;BME280;36329;48.816;44.624;2023-03-13T08:28:53;101223;;;7.4;48.1
49583;BME280;36329;48.816;44.624;2023-03-13T08:32:00;101226;;;6.9;49.4
49583;BME280;36329;48.816;44.624;2023-03-13T08:35:09;101226;;;7.2;51.4
49583;BME280;36329;48.816;44.624;2023-03-13T08:38:14;101230;;;7.3;50.8
49583;BME280;36329;48.816;44.624;2023-03-13T08:41:36;101232;;;7.1;49.7
49583;BME280;36329;48.816;44.624;2023-03-13T08:45:02;101217;;;6.8;51.6
49583;BME280;36329;48.816;44.624;2023-03-13T08:48:21;101232;;;6.7;51.6
49583;BME280;36329;48.816;44.624;2023-03-13T08:51:37;101230;;;6.9;49.9
49583;BME280;36329;48.816;44.624;2023-03-13T08:54:49;101239;;;7.2;49.7
49583;BME280;36329;48.816;44.624;2023-03-13T08:58:02;101240;;;7.5;48.9
49583;BME280;36329;48.816;44.624;2023-03-13T09:01:07;101245;;;7.8;48.2
49583;BME280;36329;48.816;44.624;2023-03-13T09:04:22;101245;;;7.9;46.9
49583;BME280;36329;48.816;44.624;2023-03-13T09:07:27;101244;;;8.5;46.9
49583;BME280;36329;48.816;44.624;2023-03-13T09:10:32;101241;;;8.8;45.1
49583;BME280;36329;48.816;44.624;2023-03-13T09:13:38;101242;;;8.4;42.9
49583;BME280;36329;48.816;44.624;2023-03-13T09:16:51;101255;;;8.5;43.5
49583;BME280;36329;48.816;44.624;2023-03-13T09:19:57;101260;;;8.4;43.5
49583;BME280;36329;48.816;44.624;2023-03-13T09:23:11;101257;;;8.4;43.1
49583;BME280;36329;48.816;44.624;2023-03-13T09:26:31;101252;;;8.5;43.8
49583;BME280;36329;48.816;44.624;2023-03-13T09:29:38;101246;;;9;44
49583;BME280;36329;48.816;44.624;2023-03-13T09:33:16;101244;;;9.3;43.3
49583;BME280;36329;48.816;44.624;2023-03-13T09:36:31;101249;;;9.3;42.9
49583;BME280;36329;48.816;44.624;2023-03-13T09:39:58;101255;;;8.9;44
49583;BME280;36329;48.816;44.624;2023-03-13T09:43:20;101250;;;9.3;43.4
49583;BME280;36329;48.816;44.624;2023-03-13T09:46:48;101249;;;9.1;43.7
49583;BME280;36329;48.816;44.624;2023-03-13T09:50:08;101252;;;9.9;42.3
49583;BME280;36329;48.816;44.624;2023-03-13T09:53:41;101253;;;10.2;41.3
49583;BME280;36329;48.816;44.624;2023-03-13T09:57:00;101260;;;10.2;41.3
49583;BME280;36329;48.816;44.624;2023-03-13T10:00:23;101259;;;9.9;41.1
49583;BME280;36329;48.816;44.624;2023-03-13T10:03:30;101263;;;9.5;41.6
49583;BME280;36329;48.816;44.624;2023-03-13T10:06:43;101267;;;10.1;41.4
49583;BME280;36329;48.816;44.624;2023-03-13T10:10:14;101279;;;9.9;41.1
49583;BME280;36329;48.816;44.624;2023-03-13T10:13:29;101269;;;9.8;41.5
49583;BME280;36329;48.816;44.624;2023-03-13T10:17:04;101270;;;10.2;40.4
49583;BME280;36329;48.816;44.624;2023-03-13T10:20:22;101277;;;9.7;40.7
49583;BME280;36329;48.816;44.624;2023-03-13T10:23:50;101268;;;9.9;41.5
49583;BME280;36329;48.816;44.624;2023-03-13T10:27:06;101273;;;10;40.4
49583;BME280;36329;48.816;44.624;2023-03-13T10:30:27;101276;;;10.6;39.6
49583;BME280;36329;48.816;44.624;2023-03-13T10:33:41;101271;;;11.3;38.5
49583;BME280;36329;48.816;44.624;2023-03-13T10:36:47;101274;;;11;38.1
49583;BME280;36329;48.816;44.624;2023-03-13T10:43:25;101285;;;11.5;37.7
49583;BME280;36329;48.816;44.624;2023-03-13T10:46:31;101292;;;11.6;36.7
49583;BME280;36329;48.816;44.624;2023-03-13T10:49:48;101296;;;11.7;37.2
49583;BME280;36329;48.816;44.624;2023-03-13T10:52:53;101302;;;11.9;37.5
49583;BME280;36329;48.816;44.624;2023-03-13T10:55:57;101300;;;11.4;38.2
49583;BME280;36329;48.816;44.624;2023-03-13T10:59:25;101312;;;10.6;39.2
49583;BME280;36329;48.816;44.624;2023-03-13T11:02:56;101314;;;11;39.2
49583;BME280;36329;48.816;44.624;2023-03-13T11:06:02;101322;;;11.3;37.5
49583;BME280;36329;48.816;44.624;2023-03-13T11:09:18;101316;;;11.1;36.6
49583;BME280;36329;48.816;44.624;2023-03-13T11:12:43;101323;;;10.8;37.3
49583;BME280;36329;48.816;44.624;2023-03-13T11:16:04;101331;;;11.3;36.9
49583;BME280;36329;48.816;44.624;2023-03-13T11:19:35;101339;;;11.4;36.5
49583;BME280;36329;48.816;44.624;2023-03-13T11:22:52;101357;;;11.2;37.4
49583;BME280;36329;48.816;44.624;2023-03-13T11:26:26;101352;;;11.3;38.6
49583;BME280;36329;48.816;44.624;2023-03-13T11:30:00;101353;;;11.2;37
49583;BME280;36329;48.816;44.624;2023-03-13T11:33:21;101349;;;11.4;37
49583;BME280;36329;48.816;44.624;2023-03-13T11:36:54;101363;;;11.6;35.6
49583;BME280;36329;48.816;44.624;2023-03-13T11:40:12;101367;;;11.4;36.2
49583;BME280;36329;48.816;44.624;2023-03-13T11:50:51;101374;;;10.4;36.9
49583;BME280;36329;48.816;44.624;2023-03-13T11:54:08;101379;;;10.2;37.3
49583;BME280;36329;48.816;44.624;2023-03-13T11:57:20;101383;;;9.8;38.1
49583;BME280;36329;48.816;44.624;2023-03-13T12:00:35;101382;;;9.5;37.6
49583;BME280;36329;48.816;44.624;2023-03-13T12:03:58;101387;;;9.7;37.9
49583;BME280;36329;48.816;44.624;2023-03-13T12:07:16;101392;;;9.3;39.6
49583;BME280;36329;48.816;44.624;2023-03-13T12:10:29;101394;;;9.5;40.2
49583;BME280;36329;48.816;44.624;2023-03-13T12:13:37;101397;;;9.5;40.3
49583;BME280;36329;48.816;44.624;2023-03-13T12:16:51;101390;;;9.2;40.1
49583;BME280;36329;48.816;44.624;2023-03-13T12:20:01;101397;;;9.2;41
49583;BME280;36329;48.816;44.624;2023-03-13T12:23:16;101401;;;9;40.2
49583;BME280;36329;48.816;44.624;2023-03-13T12:26:36;101402;;;8.8;39.9
49583;BME280;36329;48.816;44.624;2023-03-13T12:29:59;101412;;;8.7;40.3
49583;BME280;36329;48.816;44.624;2023-03-13T12:33:16;101415;;;8.6;40.3
49583;BME280;36329;48.816;44.624;2023-03-13T12:36:34;101424;;;8.7;39.3
49583;BME280;36329;48.816;44.624;2023-03-13T12:39:52;101417;;;8.4;40.4
49583;BME280;36329;48.816;44.624;2023-03-13T12:43:17;101423;;;8.5;41.4
49583;BME280;36329;48.816;44.624;2023-03-13T12:46:38;101425;;;8.5;42.1
49583;BME280;36329;48.816;44.624;2023-03-13T12:57:12;101431;;;8.5;42
49583;BME280;36329;48.816;44.624;2023-03-13T13:00:21;101430;;;8.5;42.6
49583;BME280;36329;48.816;44.624;2023-03-13T13:03:36;101428;;;8.5;42.9
49583;BME280;36329;48.816;44.624;2023-03-13T13:06:51;101433;;;8.4;42.7
49583;BME280;36329;48.816;44.624;2023-03-13T13:10:03;101439;;;8.2;43.6
49583;BME280;36329;48.816;44.624;2023-03-13T13:13:30;101447;;;8.3;43.6
49583;BME280;36329;48.816;44.624;2023-03-13T13:16:33;101451;;;8.2;43.4
49583;BME280;36329;48.816;44.624;2023-03-13T13:19:45;101443;;;8.3;43.5
49583;BME280;36329;48.816;44.624;2023-03-13T13:22:48;101451;;;8.2;43.3
49583;BME280;36329;48.816;44.624;2023-03-13T13:29:53;101460;;;7.7;44.5
49583;BME280;36329;48.816;44.624;2023-03-13T13:37:02;101471;;;7.8;46
49583;BME280;36329;48.816;44.624;2023-03-13T13:40:27;101479;;;7.8;46.2
49583;BME280;36329;48.816;44.624;2023-03-13T13:43:37;101473;;;7.8;45.9
49583;BME280;36329;48.816;44.624;2023-03-13T13:46:44;101486;;;7.6;45.5
49583;BME280;36329;48.816;44.624;2023-03-13T13:49:57;101490;;;7.5;46.1
49583;BME280;36329;48.816;44.624;2023-03-13T13:53:28;101497;;;7.4;45.7
49583;BME280;36329;48.816;44.624;2023-03-13T13:56:37;101497;;;7.6;45.3
49583;BME280;36329;48.816;44.624;2023-03-13T13:59:49;101501;;;7.6;44.9
49583;BME280;36329;48.816;44.624;2023-03-13T14:03:21;101509;;;7.6;44.3
49583;BME280;36329;48.816;44.624;2023-03-13T14:06:46;101508;;;7.4;44.2
49583;BME280;36329;48.816;44.624;2023-03-13T14:10:05;101516;;;7.4;44.4
49583;BME280;36329;48.816;44.624;2023-03-13T14:13:18;101513;;;7.1;44.1
49583;BME280;36329;48.816;44.624;2023-03-13T14:16:28;101519;;;7.4;43.8
49583;BME280;36329;48.816;44.624;2023-03-13T14:19:43;101534;;;7.2;43.2
49583;BME280;36329;48.816;44.624;2023-03-13T14:23:05;101536;;;7.1;44.3
49583;BME280;36329;48.816;44.624;2023-03-13T14:26:15;101541;;;7.2;44
49583;BME280;36329;48.816;44.624;2023-03-13T14:29:25;101538;;;7.1;44.2
49583;BME280;36329;48.816;44.624;2023-03-13T14:32:30;101540;;;7.3;44.4
49583;BME280;36329;48.816;44.624;2023-03-13T14:35:49;101543;;;7.1;45.1
49583;BME280;36329;48.816;44.624;2023-03-13T14:38:58;101559;;;7.2;45.5
49583;BME280;36329;48.816;44.624;2023-03-13T14:42:16;101559;;;7.2;45.7
49583;BME280;36329;48.816;44.624;2023-03-13T14:45:29;101561;;;7.2;45.8
49583;BME280;36329;48.816;44.624;2023-03-13T14:48:48;101564;;;7.1;45.8
49583;BME280;36329;48.816;44.624;2023-03-13T14:51:59;101569;;;7.2;46.1
49583;BME280;36329;48.816;44.624;2023-03-13T14:55:26;101587;;;7;46.1
49583;BME280;36329;48.816;44.624;2023-03-13T14:58:36;101597;;;6.9;46.2
49583;BME280;36329;48.816;44.624;2023-03-13T15:01:57;101597;;;6.9;46.2
49583;BME280;36329;48.816;44.624;2023-03-13T15:05:05;101611;;;6.8;46.5
49583;BME280;36329;48.816;44.624;2023-03-13T15:08:15;101611;;;6.9;46.9
49583;BME280;36329;48.816;44.624;2023-03-13T15:11:28;101621;;;6.9;46.9
49583;BME280;36329;48.816;44.624;2023-03-13T15:14:39;101624;;;6.8;47.4
49583;BME280;36329;48.816;44.624;2023-03-13T15:17:50;101635;;;6.8;47.5
49583;BME280;36329;48.816;44.624;2023-03-13T15:24:56;101656;;;6.7;48.8
49583;BME280;36329;48.816;44.624;2023-03-13T15:28:12;101671;;;6.8;49.2
49583;BME280;36329;48.816;44.624;2023-03-13T15:31:26;101668;;;6.5;50.5
49583;BME280;36329;48.816;44.624;2023-03-13T15:34:44;101672;;;6.4;50.6
49583;BME280;36329;48.816;44.624;2023-03-13T15:37:54;101672;;;6.3;51.6
49583;BME280;36329;48.816;44.624;2023-03-13T15:41:26;101688;;;6.3;52.2
49583;BME280;36329;48.816;44.624;2023-03-13T15:44:58;101691;;;6.2;52.4
49583;BME280;36329;48.816;44.624;2023-03-13T15:48:10;101699;;;6;53.2
49583;BME280;36329;48.816;44.624;2023-03-13T15:51:27;101707;;;6.1;53.6
49583;BME280;36329;48.816;44.624;2023-03-13T15:54:38;101707;;;6.1;53.7
49583;BME280;36329;48.816;44.624;2023-03-13T15:57:57;101708;;;6;53.9
49583;BME280;36329;48.816;44.624;2023-03-13T16:01:22;101706;;;6.3;53.7
49583;BME280;36329;48.816;44.624;2023-03-13T16:04:38;101711;;;6.2;53.8
49583;BME280;36329;48.816;44.624;2023-03-13T16:07:43;101718;;;5.9;54.9
49583;BME280;36329;48.816;44.624;2023-03-13T16:10:45;101728;;;5.7;55.9
49583;BME280;36329;48.816;44.624;2023-03-13T16:13:49;101735;;;5.4;56.9
49583;BME280;36329;48.816;44.624;2023-03-13T16:17:12;101734;;;5.5;57.1
49583;BME280;36329;48.816;44.624;2023-03-13T16:20:23;101744;;;5.6;56.5
49583;BME280;36329;48.816;44.624;2023-03-13T16:23:35;101748;;;5.7;56.2
49583;BME280;36329;48.816;44.624;2023-03-13T16:26:49;101753;;;5.9;55.9
49583;BME280;36329;48.816;44.624;2023-03-13T16:30:24;101753;;;5.8;55.9
49583;BME280;36329;48.816;44.624;2023-03-13T16:33:49;101757;;;5.9;56.3
49583;BME280;36329;48.816;44.624;2023-03-13T16:37:19;101765;;;5.8;56.7
49583;BME280;36329;48.816;44.624;2023-03-13T16:40:41;101758;;;5.9;56.4
49583;BME280;36329;48.816;44.624;2023-03-13T16:44:01;101761;;;5.9;56.4
49583;BME280;36329;48.816;44.624;2023-03-13T16:47:19;101766;;;6;56.5
49583;BME280;36329;48.816;44.624;2023-03-13T16:50:32;101763;;;6;56.7
49583;BME280;36329;48.816;44.624;2023-03-13T16:53:58;101762;;;5.8;57
49583;BME280;36329;48.816;44.624;2023-03-13T16:57:10;101764;;;5.8;57.1
49583;BME280;36329;48.816;44.624;2023-03-13T17:00:32;101768;;;5.7;56.4
49583;BME280;36329;48.816;44.624;2023-03-13T17:03:36;101768;;;5.6;56.9
49583;BME280;36329;48.816;44.624;2023-03-13T17:06:41;101772;;;5.4;56.2
49583;BME280;36329;48.816;44.624;2023-03-13T17:09:51;101772;;;5.3;56.3
49583;BME280;36329;48.816;44.624;2023-03-13T17:13:02;101777;;;5.3;56.6
49583;BME280;36329;48.816;44.624;2023-03-13T17:16:17;101780;;;5.2;56.7
49583;BME280;36329;48.816;44.624;2023-03-13T17:19:30;101781;;;4.8;58
49583;BME280;36329;48.816;44.624;2023-03-13T17:22:55;101787;;;4.8;58.4
49583;BME280;36329;48.816;44.624;2023-03-13T17:26:10;101791;;;4.9;58.3
49583;BME280;36329;48.816;44.624;2023-03-13T17:29:30;101795;;;5;58
49583;BME280;36329;48.816;44.624;2023-03-13T17:32:40;101790;;;4.8;58.3
49583;BME280;36329;48.816;44.624;2023-03-13T17:35:47;101794;;;4.9;58.2
49583;BME280;36329;48.816;44.624;2023-03-13T17:39:22;101791;;;4.9;58
49583;BME280;36329;48.816;44.624;2023-03-13T17:42:48;101797;;;4.8;58.3
49583;BME280;36329;48.816;44.624;2023-03-13T17:46:23;101808;;;4.6;59.1
49583;BME280;36329;48.816;44.624;2023-03-13T17:50:16;101808;;;4.4;59.9
49583;BME280;36329;48.816;44.624;2023-03-13T17:53:57;101810;;;4.4;60.2
49583;BME280;36329;48.816;44.624;2023-03-13T17:57:08;101810;;;4.2;60.6
49583;BME280;36329;48.816;44.624;2023-03-13T18:00:23;101810;;;4;62.3
49583;BME280;36329;48.816;44.624;2023-03-13T18:03:44;101825;;;4.2;62.2
49583;BME280;36329;48.816;44.624;2023-03-13T18:07:08;101830;;;4.1;62.7
49583;BME280;36329;48.816;44.624;2023-03-13T18:10:16;101825;;;4;63.2
49583;BME280;36329;48.816;44.624;2023-03-13T18:13:43;101832;;;4;63.3
49583;BME280;36329;48.816;44.624;2023-03-13T18:16:48;101845;;;4.3;62
49583;BME280;36329;48.816;44.624;2023-03-13T18:20:09;101850;;;4.4;62.2
49583;BME280;36329;48.816;44.624;2023-03-13T18:23:29;101855;;;4.4;62
49583;BME280;36329;48.816;44.624;2023-03-13T18:26:41;101861;;;4.3;61.7
49583;BME280;36329;48.816;44.624;2023-03-13T18:29:47;101868;;;4.4;61.1
49583;BME280;36329;48.816;44.624;2023-03-13T18:33:10;101869;;;4.4;60.9
49583;BME280;36329;48.816;44.624;2023-03-13T18:36:23;101868;;;4.5;60.2